Time;durP1;ratioP1;P1;durP2;ratioP2;P2;SDS_P1;SDS_P2;PMS_P1;PMS_P2;Temp;Humidity;BMP_temperature;BMP_pressure;BME280_temperature;BME280_humidity;BME280_pressure;Samples;Min_cycle;Max_cycle;Signal;HPM_P1;HPM_P2
2022/05/25 00:00:37;;;;;;;;;;;;;;;22.42;48.28;100701.06;5013326;28;5324;-67
2022/05/25 00:03:04;;;;;;;;;;;;;;;22.41;48.50;100705.38;5016279;28;4245;-66
2022/05/25 00:05:30;;;;;;;;;;;;;;;22.42;48.35;100706.84;5013023;28;4290;-66
2022/05/25 00:07:57;;;;;;;;;;;;;;;22.42;48.28;100717.66;5017460;28;4249;-75
2022/05/25 00:10:24;;;;;;;;;;;;;;;22.40;48.35;100718.31;5010526;28;5320;-75
2022/05/25 00:12:50;;;;;;;;;;;;;;;22.40;48.37;100709.66;5010619;28;4183;-67
2022/05/25 00:15:16;;;;;;;;;;;;;;;22.39;48.49;100713.97;5011136;28;5262;-67
2022/05/25 00:17:43;;;;;;;;;;;;;;;22.39;48.26;100713.97;5015754;28;5289;-68
2022/05/25 00:20:09;;;;;;;;;;;;;;;22.38;48.22;100712.50;5018127;28;4430;-67
2022/05/25 00:22:43;;;;;;;;;;;;;;;22.38;48.46;100712.50;5016275;28;5075;-67
2022/05/25 00:25:10;;;;;;;;;;;;;;;22.38;48.12;100712.50;5014694;28;5542;-67
2022/05/25 00:27:37;;;;;;;;;;;;;;;22.37;48.32;100719.66;5014509;28;5434;-68
2022/05/25 00:30:03;;;;;;;;;;;;;;;22.36;48.48;100721.06;5015600;28;4224;-68
2022/05/25 00:32:30;;;;;;;;;;;;;;;22.35;48.11;100720.31;5016221;28;4157;-67
2022/05/25 00:34:56;;;;;;;;;;;;;;;22.35;48.26;100722.47;5016613;28;4291;-68
2022/05/25 00:37:22;;;;;;;;;;;;;;;22.35;48.15;100713.81;5012936;28;4260;-68
2022/05/25 00:39:49;;;;;;;;;;;;;;;22.34;48.55;100713.06;5015095;28;5423;-68
2022/05/25 00:42:16;;;;;;;;;;;;;;;22.35;48.44;100720.31;5016415;28;4263;-68
2022/05/25 00:44:42;;;;;;;;;;;;;;;22.35;48.01;100713.81;5010809;28;4162;-69
2022/05/25 00:47:09;;;;;;;;;;;;;;;22.35;48.11;100713.81;5013910;28;4275;-68
2022/05/25 00:49:35;;;;;;;;;;;;;;;22.33;48.10;100707.97;5014859;28;4226;-68
2022/05/25 00:52:06;;;;;;;;;;;;;;;22.34;48.02;100709.47;5014607;28;4256;-69
2022/05/25 00:54:32;;;;;;;;;;;;;;;22.34;48.09;100703.69;5016776;28;5546;-68
2022/05/25 00:57:00;;;;;;;;;;;;;;;22.35;48.28;100705.16;5012442;28;5099;-69
2022/05/25 00:59:28;;;;;;;;;;;;;;;22.34;48.24;100706.56;5012118;28;4484;-68
2022/05/25 01:01:54;;;;;;;;;;;;;;;22.34;48.12;100701.53;5014924;28;4854;-68
2022/05/25 01:04:21;;;;;;;;;;;;;;;22.34;48.31;100700.81;5018310;28;4256;-68
2022/05/25 01:07:06;;;;;;;;;;;;;;;22.33;48.23;100699.31;5011585;28;5305;-68
2022/05/25 01:09:50;;;;;;;;;;;;;;;22.32;48.08;100694.97;5016614;28;4351;-68
2022/05/25 01:12:29;;;;;;;;;;;;;;;22.32;47.92;100703.63;5008799;28;4226;-68
2022/05/25 01:14:59;;;;;;;;;;;;;;;22.31;48.15;100707.88;5014631;28;4159;-68
2022/05/25 01:17:38;;;;;;;;;;;;;;;22.31;48.31;100707.88;4995162;28;5423;-68
2022/05/25 01:20:07;;;;;;;;;;;;;;;22.30;48.14;100712.19;5016671;28;4260;-68
2022/05/25 01:22:53;;;;;;;;;;;;;;;22.31;48.01;100707.88;5007466;28;4223;-69
2022/05/25 01:25:37;;;;;;;;;;;;;;;22.31;48.26;100707.88;5019327;28;4379;-68
2022/05/25 01:28:09;;;;;;;;;;;;;;;22.29;48.03;100711.47;5012462;28;4198;-68
2022/05/25 01:30:36;;;;;;;;;;;;;;;22.29;47.96;100710.72;5007016;28;4222;-68
2022/05/25 01:33:12;;;;;;;;;;;;;;;22.29;48.06;100704.97;5013722;28;5371;-68
2022/05/25 01:35:45;;;;;;;;;;;;;;;22.28;48.20;100698.44;5017027;28;5335;-68
2022/05/25 01:38:16;;;;;;;;;;;;;;;22.27;47.91;100708.50;5013396;28;4249;-68
2022/05/25 01:40:44;;;;;;;;;;;;;;;22.26;48.11;100701.22;5011832;28;4252;-68
2022/05/25 01:43:10;;;;;;;;;;;;;;;22.25;48.06;100702.66;5016323;28;4276;-73
2022/05/25 01:45:42;;;;;;;;;;;;;;;22.25;47.80;100704.81;5012419;28;4204;-67
2022/05/25 01:48:08;;;;;;;;;;;;;;;22.24;48.13;100714.84;5016938;28;5270;-66
2022/05/25 01:50:53;;;;;;;;;;;;;;;22.24;47.93;100720.63;5013981;28;4304;-66
2022/05/25 01:53:21;;;;;;;;;;;;;;;22.23;47.91;100717.00;5012995;28;4294;-66
2022/05/25 01:55:50;;;;;;;;;;;;;;;22.24;47.88;100727.16;5009277;28;4210;-66
2022/05/25 01:58:16;;;;;;;;;;;;;;;22.24;47.83;100726.38;5012815;28;4252;-66
2022/05/25 02:00:44;;;;;;;;;;;;;;;22.22;48.10;100726.31;5016021;28;4238;-66
2022/05/25 02:06:07;;;;;;;;;;;;;;;22.22;47.78;100735.72;5013283;28;4209;-66
2022/05/25 02:08:36;;;;;;;;;;;;;;;22.21;47.84;100745.75;5017902;28;4254;-67
2022/05/25 02:11:13;;;;;;;;;;;;;;;22.22;48.07;100740.72;5011938;28;4210;-67
2022/05/25 02:13:43;;;;;;;;;;;;;;;22.21;47.86;100739.22;5012209;28;5267;-66
2022/05/25 02:16:16;;;;;;;;;;;;;;;22.21;47.90;100742.13;5022982;28;4163;-67
2022/05/25 02:18:52;;;;;;;;;;;;;;;22.20;48.09;100744.28;5012400;28;4208;-67
2022/05/25 02:21:28;;;;;;;;;;;;;;;22.20;48.02;100746.41;5025723;28;4208;-67
2022/05/25 02:23:58;;;;;;;;;;;;;;;22.20;47.91;100734.88;5014067;28;4187;-67
2022/05/25 02:26:28;;;;;;;;;;;;;;;22.19;48.06;100748.53;5013087;28;4255;-65
2022/05/25 02:28:59;;;;;;;;;;;;;;;22.17;47.94;100737.69;5010698;28;4258;-67
2022/05/25 02:31:27;;;;;;;;;;;;;;;22.18;47.85;100747.06;5007184;28;4209;-67
2022/05/25 02:33:55;;;;;;;;;;;;;;;22.18;48.02;100759.34;5017963;28;4122;-67
2022/05/25 02:36:21;;;;;;;;;;;;;;;22.15;48.11;100749.16;5014822;28;4262;-67
2022/05/25 02:38:48;;;;;;;;;;;;;;;22.16;47.93;100750.63;5016194;28;4202;-66
2022/05/25 02:41:30;;;;;;;;;;;;;;;22.16;48.14;100752.75;5015652;28;6516;-67
2022/05/25 02:43:57;;;;;;;;;;;;;;;22.16;48.11;100752.75;5015107;28;4254;-67
2022/05/25 02:46:23;;;;;;;;;;;;;;;22.13;48.03;100763.50;5015615;28;4084;-68
2022/05/25 02:48:49;;;;;;;;;;;;;;;22.14;48.02;100767.84;5017202;28;4148;-67
2022/05/25 02:51:16;;;;;;;;;;;;;;;22.14;47.80;100764.22;5010894;28;4222;-65
2022/05/25 02:53:42;;;;;;;;;;;;;;;22.14;47.95;100773.59;5002405;28;4421;-66
2022/05/25 02:56:09;;;;;;;;;;;;;;;22.14;47.95;100770.00;5010504;28;4177;-65
2022/05/25 02:58:35;;;;;;;;;;;;;;;22.13;47.82;100759.88;5007654;28;5212;-66
2022/05/25 03:01:01;;;;;;;;;;;;;;;22.13;48.02;100772.13;5010171;28;4230;-65
2022/05/25 03:03:28;;;;;;;;;;;;;;;22.12;48.00;100759.09;5012146;28;4006;-66
2022/05/25 03:05:55;;;;;;;;;;;;;;;22.12;48.03;100767.03;5011268;28;4025;-66
2022/05/25 03:08:21;;;;;;;;;;;;;;;22.11;47.84;100780.72;5016646;28;3998;-66
2022/05/25 03:10:47;;;;;;;;;;;;;;;22.11;47.80;100777.81;5007918;28;4111;-65
2022/05/25 03:13:14;;;;;;;;;;;;;;;22.11;47.80;100783.59;5009163;28;4253;-66
2022/05/25 03:15:41;;;;;;;;;;;;;;;22.10;47.89;100793.63;5006624;28;4316;-65
2022/05/25 03:18:07;;;;;;;;;;;;;;;22.10;48.00;100787.88;5013574;28;4012;-66
2022/05/25 03:20:34;;;;;;;;;;;;;;;22.10;47.79;100787.88;5007629;28;3963;-65
2022/05/25 03:23:00;;;;;;;;;;;;;;;22.10;47.67;100805.16;5019692;28;4099;-66
2022/05/25 03:25:26;;;;;;;;;;;;;;;22.09;47.82;100809.47;5016411;28;5132;-66
2022/05/25 03:27:53;;;;;;;;;;;;;;;22.08;48.00;100802.22;5013097;28;4144;-66
2022/05/25 03:30:20;;;;;;;;;;;;;;;22.11;47.75;100806.66;5018184;28;5121;-69
2022/05/25 03:32:47;;;;;;;;;;;;;;;22.09;47.66;100815.22;5017678;28;5475;-66
2022/05/25 03:35:41;;;;;;;;;;;;;;;22.07;47.61;100803.63;5018726;28;4189;-65
2022/05/25 03:38:08;;;;;;;;;;;;;;;22.08;47.70;100807.25;5010727;28;5439;-65
2022/05/25 03:40:34;;;;;;;;;;;;;;;22.07;47.81;100789.19;5007914;28;5356;-65
2022/05/25 03:43:00;;;;;;;;;;;;;;;22.07;47.73;100794.97;5012879;28;4637;-65
2022/05/25 03:45:27;;;;;;;;;;;;;;;22.07;47.80;100809.38;5011354;28;5779;-66
2022/05/25 03:47:53;;;;;;;;;;;;;;;22.06;47.88;100815.81;5010529;28;4026;-67
2022/05/25 03:50:20;;;;;;;;;;;;;;;22.07;47.96;100818.03;5010163;28;5297;-66
2022/05/25 03:52:46;;;;;;;;;;;;;;;22.06;47.89;100813.69;5010138;28;4143;-67
2022/05/25 03:55:12;;;;;;;;;;;;;;;22.05;48.09;100815.06;5014312;28;4062;-66
2022/05/25 03:57:39;;;;;;;;;;;;;;;22.06;47.78;100816.56;5011675;28;5263;-66
2022/05/25 04:00:05;;;;;;;;;;;;;;;22.05;47.91;100817.97;5018926;28;4140;-66
2022/05/25 04:02:32;;;;;;;;;;;;;;;22.05;48.16;100820.09;5012903;28;4181;-67
2022/05/25 04:05:07;;;;;;;;;;;;;;;22.06;48.06;100822.34;5012613;28;4099;-66
2022/05/25 04:07:38;;;;;;;;;;;;;;;22.05;48.02;100820.84;5009967;28;4216;-67
2022/05/25 04:10:05;;;;;;;;;;;;;;;22.04;48.02;100825.13;5009154;28;4182;-67
2022/05/25 04:12:31;;;;;;;;;;;;;;;22.03;47.90;100823.63;5009796;28;4232;-66
2022/05/25 04:14:58;;;;;;;;;;;;;;;22.03;48.23;100823.63;5011832;28;5313;-67
2022/05/25 04:17:24;;;;;;;;;;;;;;;22.03;48.21;100832.28;5010202;28;4250;-67
2022/05/25 04:19:50;;;;;;;;;;;;;;;22.02;48.36;100839.47;5014585;28;4149;-67
2022/05/25 04:22:18;;;;;;;;;;;;;;;22.02;48.15;100844.50;5015629;28;4286;-67
2022/05/25 04:24:44;;;;;;;;;;;;;;;22.02;48.13;100842.34;5011517;28;4163;-67
2022/05/25 04:27:12;;;;;;;;;;;;;;;22.00;47.94;100842.28;5010904;28;5201;-67
2022/05/25 04:29:39;;;;;;;;;;;;;;;22.01;48.15;100843.75;5013362;28;4512;-67
2022/05/25 04:32:06;;;;;;;;;;;;;;;22.01;48.17;100843.75;5008080;28;4181;-67
2022/05/25 04:34:32;;;;;;;;;;;;;;;22.01;48.11;100843.75;5005705;28;4155;-67
2022/05/25 04:37:48;;;;;;;;;;;;;;;21.94;48.09;100844.91;5003501;28;4287;-76
2022/05/25 04:39:45;;;;;;;;;;;;;;;21.94;47.56;100847.78;5011571;28;5338;-74
2022/05/25 04:42:12;;;;;;;;;;;;;;;21.71;47.79;100846.88;5003526;28;4354;-82
2022/05/25 04:44:38;;;;;;;;;;;;;;;21.45;47.55;100843.69;5011144;28;4139;-72
2022/05/25 04:47:08;;;;;;;;;;;;;;;21.16;47.52;100850.34;5016062;28;5393;-79
2022/05/25 04:49:34;;;;;;;;;;;;;;;21.18;47.16;100844.66;5009633;28;4259;-78
2022/05/25 04:52:01;;;;;;;;;;;;;;;21.38;46.77;100832.53;5014391;28;4294;-78
2022/05/25 04:54:27;;;;;;;;;;;;;;;21.49;46.92;100840.25;5016635;28;5348;-78
2022/05/25 04:59:44;;;;;;;;;;;;;;;21.63;46.48;100837.94;5016199;28;4350;-78
2022/05/25 05:02:10;;;;;;;;;;;;;;;21.67;46.50;100846.75;5016883;28;4209;-78
2022/05/25 05:04:37;;;;;;;;;;;;;;;21.70;46.78;100839.66;5015682;28;5272;-78
2022/05/25 05:07:04;;;;;;;;;;;;;;;21.72;46.67;100853.41;5016438;28;4247;-74
2022/05/25 05:09:33;;;;;;;;;;;;;;;21.72;46.73;100851.28;5015156;28;4172;-73
2022/05/25 05:12:00;;;;;;;;;;;;;;;21.75;47.27;100847.06;5012706;28;5448;-70
2022/05/25 05:14:26;;;;;;;;;;;;;;;21.75;47.31;100844.19;5013301;28;5301;-72
2022/05/25 05:16:57;;;;;;;;;;;;;;;21.77;46.99;100843.53;5014813;28;4168;-69
2022/05/25 05:19:34;;;;;;;;;;;;;;;21.78;47.32;100855.78;5027937;28;4263;-69
2022/05/25 05:22:05;;;;;;;;;;;;;;;21.80;47.30;100858.75;5019149;28;4219;-71
2022/05/25 05:24:32;;;;;;;;;;;;;;;21.78;47.69;100852.91;5015648;28;5438;-71
2022/05/25 05:26:59;;;;;;;;;;;;;;;21.78;47.78;100861.56;5014937;28;4059;-72
2022/05/25 05:29:28;;;;;;;;;;;;;;;21.79;47.94;100863.06;5015773;28;4132;-70
2022/05/25 05:31:54;;;;;;;;;;;;;;;21.80;47.57;100870.28;5015844;28;4422;-71
2022/05/25 05:34:21;;;;;;;;;;;;;;;21.80;47.66;100878.94;5017803;28;4171;-73
2022/05/25 05:37:04;;;;;;;;;;;;;;;21.80;47.77;100884.69;5013994;28;5477;-71
2022/05/25 05:39:32;;;;;;;;;;;;;;;21.80;47.87;100882.56;5014949;28;5323;-70
2022/05/25 05:41:59;;;;;;;;;;;;;;;21.82;47.73;100884.78;5015041;28;5609;-70
2022/05/25 05:44:27;;;;;;;;;;;;;;;21.82;47.70;100879.03;5014653;28;4231;-68
2022/05/25 05:47:00;;;;;;;;;;;;;;;21.84;48.22;100882.00;5015548;28;4162;-70
2022/05/25 05:49:27;;;;;;;;;;;;;;;21.84;48.15;100882.00;5011688;28;4182;-70
2022/05/25 05:51:53;;;;;;;;;;;;;;;21.83;48.28;100880.50;5011724;28;4276;-70
2022/05/25 05:54:19;;;;;;;;;;;;;;;21.84;48.88;100879.09;5013936;28;5915;-70
2022/05/25 05:56:46;;;;;;;;;;;;;;;21.83;49.08;100875.50;5015772;28;4627;-70
2022/05/25 05:59:12;;;;;;;;;;;;;;;21.84;49.23;100887.75;5017765;28;4059;-70
2022/05/25 06:01:39;;;;;;;;;;;;;;;21.84;49.29;100882.00;5016379;28;5235;-70
2022/05/25 06:04:06;;;;;;;;;;;;;;;21.83;49.10;100875.50;5016785;28;5815;-70
2022/05/25 06:06:32;;;;;;;;;;;;;;;21.84;49.23;100882.72;5015671;28;4177;-71
2022/05/25 06:08:59;;;;;;;;;;;;;;;21.84;49.04;100879.09;5016597;28;5313;-72
2022/05/25 06:11:25;;;;;;;;;;;;;;;21.84;49.13;100893.53;5014930;28;5639;-70
2022/05/25 06:13:51;;;;;;;;;;;;;;;21.84;48.96;100884.88;5018652;28;4051;-70
2022/05/25 06:21:48;;;;;;;;;;;;;;;21.87;49.21;100897.97;5018715;28;4164;-70
2022/05/25 06:24:14;;;;;;;;;;;;;;;21.87;49.30;100898.69;5020075;28;4498;-70
2022/05/25 06:26:40;;;;;;;;;;;;;;;21.86;49.22;100890.72;5019409;28;5432;-70
2022/05/25 06:29:07;;;;;;;;;;;;;;;21.88;49.18;100891.53;5019064;28;4069;-77
2022/05/25 06:31:33;;;;;;;;;;;;;;;21.86;49.32;100896.50;5018421;28;5235;-70
2022/05/25 06:34:00;;;;;;;;;;;;;;;21.88;49.31;100899.47;5018445;28;4113;-70
2022/05/25 06:36:27;;;;;;;;;;;;;;;21.88;49.17;100900.19;5019569;28;4974;-70
2022/05/25 06:38:53;;;;;;;;;;;;;;;21.89;49.29;100904.53;5018809;28;4498;-70
2022/05/25 06:41:20;;;;;;;;;;;;;;;21.89;49.34;100898.03;5020185;28;5360;-70
2022/05/25 06:43:46;;;;;;;;;;;;;;;21.89;49.39;100900.94;5020143;28;5207;-70
2022/05/25 06:46:13;;;;;;;;;;;;;;;21.89;49.22;100915.34;5019104;28;4191;-70
2022/05/25 06:48:46;;;;;;;;;;;;;;;21.90;49.13;100913.97;5018675;28;5584;-70
2022/05/25 06:51:14;;;;;;;;;;;;;;;21.89;49.17;100907.44;5019404;28;5568;-70
2022/05/25 06:53:40;;;;;;;;;;;;;;;21.90;49.13;100913.97;5017375;28;5498;-69
2022/05/25 06:56:06;;;;;;;;;;;;;;;21.90;49.28;100916.84;5018115;28;4227;-77
2022/05/25 06:58:33;;;;;;;;;;;;;;;21.89;49.05;100916.06;5017638;28;5920;-77
2022/05/25 07:00:59;;;;;;;;;;;;;;;21.91;49.40;100918.31;5022511;28;4883;-77
2022/05/25 07:03:25;;;;;;;;;;;;;;;21.90;49.13;100919.72;5019362;28;4268;-76
2022/05/25 07:05:52;;;;;;;;;;;;;;;21.90;49.23;100919.72;5019274;28;4654;-77
2022/05/25 07:08:19;;;;;;;;;;;;;;;21.90;49.28;100916.84;5019698;28;4226;-78
2022/05/25 07:10:46;;;;;;;;;;;;;;;21.90;49.19;100925.50;5018944;28;5477;-77
2022/05/25 07:13:13;;;;;;;;;;;;;;;21.90;49.29;100920.47;5019376;28;5685;-77
2022/05/25 07:15:39;;;;;;;;;;;;;;;21.90;49.37;100937.03;5020105;28;4243;-72
2022/05/25 07:18:05;;;;;;;;;;;;;;;21.91;49.12;100944.25;5017578;28;4336;-70
2022/05/25 07:20:32;;;;;;;;;;;;;;;21.90;49.05;100943.53;5018512;28;4137;-70
2022/05/25 07:22:58;;;;;;;;;;;;;;;21.90;49.35;100942.78;5018034;28;4235;-70
2022/05/25 07:25:25;;;;;;;;;;;;;;;21.91;49.11;100945.00;5019105;28;4310;-70
2022/05/25 07:27:51;;;;;;;;;;;;;;;21.92;49.26;100939.97;5023120;28;5552;-70
2022/05/25 07:30:17;;;;;;;;;;;;;;;21.91;49.06;100945.00;5018488;28;6723;-70
2022/05/25 07:32:44;;;;;;;;;;;;;;;21.92;49.15;100949.38;5017415;28;5669;-70
2022/05/25 07:35:11;;;;;;;;;;;;;;;21.92;49.03;100958.03;5019015;28;4264;-70
2022/05/25 07:37:40;;;;;;;;;;;;;;;21.92;49.09;100951.50;5018022;28;5706;-70
2022/05/25 07:40:18;;;;;;;;;;;;;;;21.93;49.28;100958.75;5033296;28;4181;-70
2022/05/25 07:42:45;;;;;;;;;;;;;;;21.94;49.14;100966.00;5019015;28;5440;-70
2022/05/25 07:45:11;;;;;;;;;;;;;;;21.94;48.96;100971.75;5018005;28;5674;-70
2022/05/25 07:47:37;;;;;;;;;;;;;;;21.94;49.00;100966.00;5017685;28;6913;-70
2022/05/25 07:50:04;;;;;;;;;;;;;;;21.94;49.03;100968.88;5018155;28;4306;-70
2022/05/25 07:52:32;;;;;;;;;;;;;;;21.93;48.85;100971.03;5018510;28;5654;-70
2022/05/25 07:54:58;;;;;;;;;;;;;;;21.93;49.20;100973.19;5017241;28;4576;-70
2022/05/25 07:57:25;;;;;;;;;;;;;;;21.94;49.03;100971.75;5017767;28;5683;-69
2022/05/25 07:59:51;;;;;;;;;;;;;;;21.94;49.05;100966.75;5018598;28;5618;-70
2022/05/25 08:07:52;;;;;;;;;;;;;;;21.94;49.05;100980.41;5017694;28;5223;-70
2022/05/25 08:10:19;;;;;;;;;;;;;;;21.95;48.92;100981.91;5017800;28;5646;-70
2022/05/25 08:12:45;;;;;;;;;;;;;;;21.95;49.21;100976.88;5017825;28;5476;-70
2022/05/25 08:15:12;;;;;;;;;;;;;;;21.95;49.16;100979.75;5018422;28;4513;-70
2022/05/25 08:17:38;;;;;;;;;;;;;;;21.95;48.88;100970.38;5017078;28;4556;-70
2022/05/25 08:20:05;;;;;;;;;;;;;;;21.95;49.15;100973.25;5018730;28;4243;-76
2022/05/25 08:22:31;;;;;;;;;;;;;;;21.95;49.15;100971.13;5016244;28;5562;-71
2022/05/25 08:24:58;;;;;;;;;;;;;;;21.95;49.12;100967.50;5018046;28;4673;-72
2022/05/25 08:27:24;;;;;;;;;;;;;;;21.95;49.16;100976.88;5017119;28;5478;-76
2022/05/25 08:29:50;;;;;;;;;;;;;;;21.95;49.04;100974.00;5017387;28;5211;-70
2022/05/25 08:32:17;;;;;;;;;;;;;;;21.95;49.19;100979.75;5017896;28;4170;-71
2022/05/25 08:34:44;;;;;;;;;;;;;;;21.95;49.06;100976.16;5016330;28;4726;-76
2022/05/25 08:37:10;;;;;;;;;;;;;;;21.95;48.86;100979.75;5017346;28;4152;-70
2022/05/25 08:39:37;;;;;;;;;;;;;;;21.95;48.93;100973.25;5016948;28;4898;-70
2022/05/25 08:42:05;;;;;;;;;;;;;;;21.96;49.01;100984.13;5018425;28;5614;-69
2022/05/25 08:44:31;;;;;;;;;;;;;;;21.96;49.17;100980.50;5017907;28;4532;-69
2022/05/25 08:46:59;;;;;;;;;;;;;;;21.97;49.01;100984.88;5015632;28;5236;-78
2022/05/25 08:49:25;;;;;;;;;;;;;;;21.97;49.02;100984.88;5015935;28;5704;-69
2022/05/25 08:51:54;;;;;;;;;;;;;;;21.96;49.00;100975.47;5017243;28;5556;-70
2022/05/25 08:54:21;;;;;;;;;;;;;;;21.96;48.98;100975.47;5016846;28;5596;-70
2022/05/25 08:56:51;;;;;;;;;;;;;;;21.96;48.97;100975.47;5016619;28;5520;-70
2022/05/25 08:59:22;;;;;;;;;;;;;;;21.97;49.08;100976.22;5016187;28;6350;-70
2022/05/25 09:01:55;;;;;;;;;;;;;;;21.97;49.01;100970.47;5021788;28;5567;-70
2022/05/25 09:04:25;;;;;;;;;;;;;;;21.99;48.99;100972.69;5017884;28;5231;-70
2022/05/25 09:06:57;;;;;;;;;;;;;;;21.98;49.26;100976.97;5016145;28;5863;-70
2022/05/25 09:09:24;;;;;;;;;;;;;;;21.99;49.22;100979.19;5015991;28;5280;-72
2022/05/25 09:11:58;;;;;;;;;;;;;;;21.98;49.12;100971.94;5017099;28;4227;-72
2022/05/25 09:14:28;;;;;;;;;;;;;;;21.99;49.03;100967.66;5018372;28;4192;-72
2022/05/25 09:16:54;;;;;;;;;;;;;;;21.98;49.09;100969.06;5017556;28;4433;-72
2022/05/25 09:19:31;;;;;;;;;;;;;;;21.99;49.11;100972.69;5016891;28;4319;-72
2022/05/25 09:21:58;;;;;;;;;;;;;;;21.99;49.09;100979.19;5016956;28;4236;-72
2022/05/25 09:24:25;;;;;;;;;;;;;;;21.99;49.07;100979.19;5016795;28;5445;-71
2022/05/25 09:26:52;;;;;;;;;;;;;;;21.99;48.87;100979.19;5015847;28;4284;-72
2022/05/25 09:29:18;;;;;;;;;;;;;;;21.99;48.76;100967.66;5016359;28;5255;-72
2022/05/25 09:31:50;;;;;;;;;;;;;;;22.00;48.75;100974.91;5015454;28;4596;-72
2022/05/25 09:34:33;;;;;;;;;;;;;;;22.00;48.72;100977.78;5017078;28;4444;-72
2022/05/25 09:37:06;;;;;;;;;;;;;;;22.01;49.01;100976.38;5016747;28;4139;-72
2022/05/25 09:39:33;;;;;;;;;;;;;;;22.00;49.05;100974.91;5015310;28;5238;-72
2022/05/25 09:42:00;;;;;;;;;;;;;;;22.02;48.80;100977.16;5016299;28;5479;-72
2022/05/25 09:44:27;;;;;;;;;;;;;;;22.02;49.03;100982.91;5016389;28;4347;-72
2022/05/25 09:46:58;;;;;;;;;;;;;;;22.01;49.16;100982.16;5021297;28;4067;-72
2022/05/25 09:49:26;;;;;;;;;;;;;;;22.02;48.98;100975.00;5020536;28;5468;-72
2022/05/25 09:51:58;;;;;;;;;;;;;;;22.03;49.25;100973.59;5034612;28;4295;-72
2022/05/25 09:54:29;;;;;;;;;;;;;;;22.03;49.15;100978.63;5020244;28;5493;-71
2022/05/25 09:57:02;;;;;;;;;;;;;;;22.03;49.17;100979.34;5036029;28;4520;-72
2022/05/25 09:59:30;;;;;;;;;;;;;;;22.02;48.93;100977.88;5020139;28;4601;-71
2022/05/25 10:01:57;;;;;;;;;;;;;;;22.03;49.08;100978.63;5019952;28;4244;-70
2022/05/25 10:04:33;;;;;;;;;;;;;;;22.03;48.92;100984.38;5020845;28;5494;-70
2022/05/25 10:06:59;;;;;;;;;;;;;;;22.03;48.93;100978.63;5019738;28;5192;-70
2022/05/25 10:09:30;;;;;;;;;;;;;;;22.02;49.13;100977.88;5020450;28;5464;-70
2022/05/25 10:12:00;;;;;;;;;;;;;;;22.03;49.18;100975.72;5034365;28;4877;-70
2022/05/25 10:14:30;;;;;;;;;;;;;;;22.03;48.78;100967.81;5019443;28;5434;-70
2022/05/25 10:17:09;;;;;;;;;;;;;;;22.02;48.91;100960.56;5020203;28;4212;-70
2022/05/25 10:19:52;;;;;;;;;;;;;;;22.02;49.01;100959.84;5018596;28;5748;-70
2022/05/25 10:22:26;;;;;;;;;;;;;;;22.03;49.07;100955.53;5020790;28;4595;-70
2022/05/25 10:25:08;;;;;;;;;;;;;;;22.03;48.92;100953.41;5019299;28;4110;-70
2022/05/25 10:27:38;;;;;;;;;;;;;;;22.03;48.82;100959.16;5020417;28;5949;-70
2022/05/25 10:38:29;;;;;;;;;;;;;;;22.06;48.94;100943.44;5019442;28;4613;-70
2022/05/25 10:40:57;;;;;;;;;;;;;;;22.04;49.19;100937.59;5019352;28;4301;-70
2022/05/25 10:43:24;;;;;;;;;;;;;;;22.05;49.09;100941.94;5019530;28;5705;-70
2022/05/25 10:45:51;;;;;;;;;;;;;;;22.04;49.10;100940.47;5018912;28;4893;-78
2022/05/25 10:48:20;;;;;;;;;;;;;;;22.05;49.11;100944.84;5034246;28;4548;-70
2022/05/25 10:50:50;;;;;;;;;;;;;;;22.05;49.06;100936.19;5018608;28;5583;-70
2022/05/25 10:53:39;;;;;;;;;;;;;;;22.05;48.93;100941.94;5032347;28;4114;-70
2022/05/25 10:56:11;;;;;;;;;;;;;;;22.06;48.96;100936.91;5018408;28;4130;-70
2022/05/25 10:58:37;;;;;;;;;;;;;;;22.05;48.88;100930.41;5017531;28;4262;-70
2022/05/25 11:01:08;;;;;;;;;;;;;;;22.06;49.11;100931.91;5019854;28;5480;-70
2022/05/25 11:03:50;;;;;;;;;;;;;;;22.06;49.06;100934.78;5016889;28;5382;-72
2022/05/25 11:06:24;;;;;;;;;;;;;;;22.07;48.87;100938.41;5018615;28;4217;-72
2022/05/25 11:09:00;;;;;;;;;;;;;;;22.07;48.91;100927.63;5023718;28;5435;-72
2022/05/25 11:11:45;;;;;;;;;;;;;;;22.08;49.00;100922.59;5017950;28;5588;-72
2022/05/25 11:14:32;;;;;;;;;;;;;;;22.08;49.02;100932.00;5019693;28;4227;-72
2022/05/25 11:17:25;;;;;;;;;;;;;;;22.09;48.92;100930.59;5019230;28;4269;-72
2022/05/25 11:19:55;;;;;;;;;;;;;;;22.10;48.70;100925.56;5018756;28;4162;-72
2022/05/25 11:22:35;;;;;;;;;;;;;;;22.10;48.72;100919.78;5019772;28;4812;-72
2022/05/25 11:25:15;;;;;;;;;;;;;;;22.11;48.93;100921.28;5018075;28;4354;-72
2022/05/25 11:27:45;;;;;;;;;;;;;;;22.10;48.70;100926.28;5019371;28;4251;-72
2022/05/25 11:30:19;;;;;;;;;;;;;;;22.10;48.75;100928.44;5017241;28;5538;-72
2022/05/25 11:32:51;;;;;;;;;;;;;;;22.10;48.72;100925.56;5018669;28;5625;-72
2022/05/25 11:35:27;;;;;;;;;;;;;;;22.10;48.73;100932.06;5019032;28;4043;-72
2022/05/25 11:38:18;;;;;;;;;;;;;;;22.12;48.90;100917.00;5024506;28;4210;-72
2022/05/25 11:40:53;;;;;;;;;;;;;;;22.13;48.87;100918.47;5018502;28;4428;-72
2022/05/25 11:43:27;;;;;;;;;;;;;;;22.12;48.70;100917.72;5018649;28;5643;-72
2022/05/25 11:45:58;;;;;;;;;;;;;;;22.12;48.55;100923.50;5016296;28;5850;-72
2022/05/25 11:49:00;;;;;;;;;;;;;;;22.14;48.78;100931.50;5030526;28;4507;-72
2022/05/25 11:51:29;;;;;;;;;;;;;;;22.13;48.65;100919.22;5033169;28;4560;-72
2022/05/25 11:54:08;;;;;;;;;;;;;;;22.14;48.82;100917.81;5017449;28;5647;-72
2022/05/25 11:56:34;;;;;;;;;;;;;;;22.14;48.57;100917.81;5018484;28;4388;-72
2022/05/25 11:59:23;;;;;;;;;;;;;;;22.14;48.65;100914.91;5019356;28;4156;-72
2022/05/25 12:01:53;;;;;;;;;;;;;;;22.15;48.75;100910.66;5021844;28;5619;-70
2022/05/25 12:04:38;;;;;;;;;;;;;;;22.15;48.73;100899.13;5019051;28;4195;-70
2022/05/25 12:07:10;;;;;;;;;;;;;;;22.17;48.45;100913.63;5017705;28;5560;-70
2022/05/25 12:09:49;;;;;;;;;;;;;;;22.16;48.50;100912.13;5017368;28;5555;-70
2022/05/25 12:12:25;;;;;;;;;;;;;;;22.16;48.64;100917.16;5006356;28;4213;-70
2022/05/25 12:14:58;;;;;;;;;;;;;;;22.16;48.75;100914.28;5017368;28;5256;-70
2022/05/25 12:17:32;;;;;;;;;;;;;;;22.16;48.55;100903.47;5017619;28;4350;-70
2022/05/25 12:19:59;;;;;;;;;;;;;;;22.15;48.42;100910.66;5018141;28;4160;-70
2022/05/25 12:22:28;;;;;;;;;;;;;;;22.16;48.53;100905.63;5017264;28;4711;-70
2022/05/25 12:24:55;;;;;;;;;;;;;;;22.16;48.50;100912.13;5019994;28;4672;-70
2022/05/25 12:27:22;;;;;;;;;;;;;;;22.17;48.62;100913.63;5016752;28;4356;-70
2022/05/25 12:29:52;;;;;;;;;;;;;;;22.17;48.69;100902.09;5031947;28;4162;-71
2022/05/25 12:32:19;;;;;;;;;;;;;;;22.16;48.42;100897.69;5016411;28;4231;-70
2022/05/25 12:34:46;;;;;;;;;;;;;;;22.20;48.46;100893.50;5017249;28;4156;-70
2022/05/25 12:37:14;;;;;;;;;;;;;;;22.18;48.46;100892.00;5017497;28;5665;-70
2022/05/25 12:39:46;;;;;;;;;;;;;;;22.21;48.31;100892.09;5015586;28;4710;-71
2022/05/25 12:42:23;;;;;;;;;;;;;;;22.21;48.57;100894.97;5017677;28;5598;-71
2022/05/25 12:50:35;;;;;;;;;;;;;;;22.21;48.48;100894.97;5011394;28;5210;-63
2022/05/25 12:53:21;;;;;;;;;;;;;;;22.21;48.47;100889.22;5007109;28;5439;-78
2022/05/25 12:55:54;;;;;;;;;;;;;;;22.22;48.52;100899.38;5014497;28;4225;-69
2022/05/25 12:58:34;;;;;;;;;;;;;;;22.21;48.47;100889.22;5016871;28;4179;-69
2022/05/25 13:01:04;;;;;;;;;;;;;;;22.24;48.47;100887.91;5017902;28;5480;-68
2022/05/25 13:03:35;;;;;;;;;;;;;;;22.24;48.35;100890.78;5015954;28;4244;-73
2022/05/25 13:06:02;;;;;;;;;;;;;;;22.23;48.38;100892.94;5015115;28;4225;-69
2022/05/25 13:08:47;;;;;;;;;;;;;;;22.22;48.62;100899.38;5018086;28;4130;-69
2022/05/25 13:11:32;;;;;;;;;;;;;;;22.21;48.64;100895.75;5018867;28;4256;-68
2022/05/25 13:13:59;;;;;;;;;;;;;;;22.22;48.65;100902.25;5015755;28;4250;-75
2022/05/25 13:16:40;;;;;;;;;;;;;;;22.22;48.54;100890.72;5016402;28;4205;-69
2022/05/25 13:19:25;;;;;;;;;;;;;;;22.23;48.79;100903.75;5015595;28;4295;-70
2022/05/25 13:21:52;;;;;;;;;;;;;;;22.22;48.72;100893.59;5017586;28;4174;-72
2022/05/25 13:24:37;;;;;;;;;;;;;;;22.23;48.64;100892.22;5023064;28;4049;-72
2022/05/25 13:27:21;;;;;;;;;;;;;;;22.25;48.92;100886.53;5021270;28;4179;-73
2022/05/25 13:30:06;;;;;;;;;;;;;;;22.24;48.69;100880.03;5020820;28;4164;-74
2022/05/25 13:32:33;;;;;;;;;;;;;;;22.25;48.67;100884.38;5013255;28;4172;-74